createdAt,value
2018-04-23T00:00:46.427Z,60.46
2018-04-23T00:01:46.899Z,60.45
2018-04-23T00:02:47.369Z,60.57
2018-04-23T00:03:48.042Z,60.53
2018-04-23T00:04:48.718Z,60.56
2018-04-23T00:05:48.783Z,60.59
2018-04-23T00:06:49.256Z,60.56
2018-04-23T00:07:49.728Z,60.58
2018-04-23T00:09:50.881Z,60.58
2018-04-23T00:10:51.352Z,60.61
2018-04-23T00:12:52.502Z,60.60
2018-04-23T00:13:52.620Z,60.63
2018-04-23T00:14:54.237Z,60.54
2018-04-23T00:15:53.520Z,60.62
2018-04-23T00:16:53.997Z,60.57
2018-04-23T00:17:55.077Z,60.45
2018-04-23T00:18:55.149Z,60.56
2018-04-23T00:19:55.623Z,60.53
2018-04-23T00:20:55.894Z,60.47
2018-04-23T00:21:56.570Z,60.47
2018-04-23T00:23:57.321Z,60.35
2018-04-23T00:25:58.673Z,60.38
2018-04-23T00:26:59.350Z,60.49
2018-04-23T00:27:59.219Z,60.40
2018-04-23T00:29:00.150Z,60.31
2018-04-23T00:30:00.173Z,60.34
2018-04-23T00:31:00.643Z,60.31
2018-04-23T00:32:01.117Z,60.25
2018-04-23T00:34:02.086Z,59.93
2018-04-23T00:36:03.217Z,59.96
2018-04-23T00:37:03.691Z,60.07
2018-04-23T00:38:04.163Z,59.95
2018-04-23T00:39:04.489Z,59.95
2018-04-23T00:40:04.911Z,60.04
2018-04-23T00:41:05.586Z,59.86
2018-04-23T00:42:05.853Z,59.86
2018-04-23T00:43:07.523Z,59.83
2018-04-23T00:44:06.803Z,59.83
2018-04-23T00:45:07.473Z,59.80
2018-04-23T00:46:07.741Z,59.85
2018-04-23T00:47:08.219Z,59.94
2018-04-23T00:48:08.891Z,60.04
2018-04-23T00:49:09.157Z,60.04
2018-04-23T00:51:10.507Z,60.19
2018-04-23T00:52:10.780Z,60.21
2018-04-23T00:53:11.045Z,60.29
2018-04-23T00:54:11.719Z,60.29
2018-04-23T00:55:12.190Z,60.38
2018-04-23T00:56:12.866Z,60.38
2018-04-23T00:57:13.133Z,60.46
2018-04-23T00:58:13.404Z,60.43
2018-04-23T00:59:13.871Z,60.37
2018-04-23T01:00:14.342Z,60.40
2018-04-23T01:01:15.219Z,60.48
2018-04-23T01:02:15.284Z,60.37
2018-04-23T01:03:15.755Z,60.40
2018-04-23T01:04:16.229Z,60.34
2018-04-23T01:05:16.901Z,60.36
2018-04-23T01:07:17.645Z,60.47
2018-04-23T01:08:19.311Z,60.47
2018-04-23T01:09:18.739Z,60.47
2018-04-23T01:10:19.058Z,60.44
2018-04-23T01:11:19.530Z,60.44
2018-04-23T01:12:20.408Z,60.50
2018-04-23T01:13:20.677Z,60.52
2018-04-23T01:14:20.952Z,60.52
2018-04-23T01:15:21.421Z,60.57
2018-04-23T01:16:21.893Z,60.60
2018-04-23T01:17:22.367Z,60.55
2018-04-23T01:18:22.841Z,60.57
2018-04-23T01:19:23.317Z,60.51
2018-04-23T01:20:23.792Z,60.48
2018-04-23T01:21:24.261Z,60.45
2018-04-23T01:22:24.736Z,60.39
2018-04-23T01:23:25.207Z,60.42
2018-04-23T01:24:25.885Z,60.39
2018-04-23T01:25:26.158Z,60.33
2018-04-23T01:26:26.835Z,60.38
2018-04-23T01:27:27.105Z,60.47
2018-04-23T01:28:27.578Z,60.47
2018-04-23T01:29:28.055Z,60.41
2018-04-23T01:30:28.528Z,60.38
2018-04-23T01:31:29.004Z,60.35
2018-04-23T01:32:29.680Z,60.35
2018-04-23T01:33:29.956Z,60.41
2018-04-23T01:34:30.427Z,60.49
2018-04-23T01:36:31.581Z,60.43
2018-04-23T01:37:31.853Z,60.43
2018-04-23T01:38:32.328Z,60.51
2018-04-23T01:39:32.805Z,60.45
2018-04-23T01:40:33.281Z,60.48
2018-04-23T01:41:33.752Z,60.56
2018-04-23T01:42:34.429Z,60.56
2018-04-23T01:43:34.701Z,60.50
2018-04-23T01:44:35.379Z,60.56
2018-04-23T01:45:35.650Z,60.64
2018-04-23T01:46:36.128Z,60.61
2018-04-23T01:47:36.602Z,60.58
2018-04-23T01:48:37.271Z,60.49
2018-04-23T01:49:37.542Z,60.61
2018-04-23T01:50:38.218Z,60.61
2018-04-23T01:51:38.488Z,60.66
2018-04-23T01:52:38.961Z,60.66
2018-04-23T01:53:39.433Z,60.69
2018-04-23T01:54:39.906Z,60.71
2018-04-23T01:55:40.379Z,60.83
2018-04-23T01:56:40.852Z,60.74
2018-04-23T01:57:41.321Z,60.82
2018-04-23T01:58:41.793Z,60.85
2018-04-23T01:59:42.416Z,60.85
2018-04-23T02:00:42.939Z,60.93
2018-04-23T02:01:43.209Z,60.93
2018-04-23T02:02:43.678Z,60.96
2018-04-23T02:03:44.351Z,61.01
2018-04-23T02:04:44.621Z,61.01
2018-04-23T02:05:45.432Z,61.09
2018-04-23T02:06:45.558Z,61.09
2018-04-23T02:08:46.506Z,61.17
2018-04-23T02:10:47.445Z,61.20
2018-04-23T02:11:47.917Z,61.23
2018-04-23T02:12:48.592Z,61.22
2018-04-23T02:13:49.061Z,61.28
2018-04-23T02:14:49.534Z,61.31
2018-04-23T02:15:49.801Z,61.36
2018-04-23T02:16:50.273Z,61.47
2018-04-23T02:17:50.948Z,61.53
2018-04-23T02:18:51.215Z,61.61
2018-04-23T02:19:51.688Z,61.64
2018-04-23T02:20:52.363Z,61.66
2018-04-23T02:21:52.635Z,61.72
2018-04-23T02:22:53.147Z,61.77
2018-04-23T02:23:53.583Z,61.78
2018-04-23T02:24:54.254Z,61.88
2018-04-23T02:25:54.525Z,61.91
2018-04-23T02:26:54.996Z,61.97
2018-04-23T02:27:55.467Z,61.94
2018-04-23T02:28:55.944Z,61.97
2018-04-23T02:29:56.618Z,62.02
2018-04-23T02:32:58.038Z,62.10
2018-04-23T02:33:58.308Z,62.13
2018-04-23T02:34:58.780Z,62.23
2018-04-23T02:35:59.458Z,62.18
2018-04-23T02:36:59.933Z,62.23
2018-04-23T02:38:00.205Z,62.37
2018-04-23T02:39:00.880Z,62.37
2018-04-23T02:40:01.356Z,62.43
2018-04-23T02:42:02.102Z,62.53
2018-04-23T02:44:03.052Z,62.56
2018-04-23T02:45:03.579Z,62.64
2018-04-23T02:47:04.475Z,62.67
2018-04-23T02:48:04.950Z,62.67
2018-04-23T02:49:05.629Z,62.78
2018-04-23T02:50:06.108Z,62.73
2018-04-23T02:51:06.576Z,62.75
2018-04-23T02:52:06.848Z,62.97
2018-04-23T02:53:07.326Z,62.92
2018-04-23T02:54:07.804Z,63.00
2018-04-23T02:55:08.323Z,63.05
2018-04-23T02:56:08.948Z,63.08
2018-04-23T02:57:09.221Z,63.10
2018-04-23T02:58:09.769Z,63.04
2018-04-23T02:59:10.370Z,63.27
2018-04-23T03:00:10.851Z,63.35
2018-04-23T03:01:11.518Z,63.35
2018-04-23T03:02:11.588Z,63.32
2018-04-23T03:03:12.061Z,63.15
2018-04-23T03:04:12.535Z,63.40
2018-04-23T03:05:13.008Z,63.37
2018-04-23T03:06:13.685Z,63.39
2018-04-23T03:07:13.949Z,63.45
2018-04-23T03:08:14.623Z,63.55
2018-04-23T03:09:14.892Z,63.52
2018-04-23T03:10:15.372Z,63.61
2018-04-23T03:12:16.309Z,63.66
2018-04-23T03:13:16.982Z,63.79
2018-04-23T03:14:17.249Z,63.82
2018-04-23T03:15:17.972Z,63.93
2018-04-23T03:16:18.193Z,63.93
2018-04-23T03:17:18.662Z,64.01
2018-04-23T03:18:19.132Z,63.98
2018-04-23T03:19:19.608Z,64.14
2018-04-23T03:20:20.127Z,63.95
2018-04-23T03:21:20.549Z,63.92
2018-04-23T03:22:21.018Z,64.02
2018-04-23T03:23:21.485Z,64.05
2018-04-23T03:24:21.966Z,64.19
2018-04-23T03:25:22.480Z,64.21
2018-04-23T03:26:22.901Z,64.10
2018-04-23T03:27:23.373Z,64.26
2018-04-23T03:28:24.046Z,64.37
2018-04-23T03:29:24.315Z,64.48
2018-04-23T03:30:24.789Z,64.42
2018-04-23T03:31:25.259Z,64.34
2018-04-23T03:34:26.674Z,64.52
2018-04-23T03:35:27.145Z,64.66
2018-04-23T03:36:27.823Z,64.74
2018-04-23T03:37:28.092Z,64.60
2018-04-23T03:39:29.035Z,64.74
2018-04-23T03:41:31.260Z,64.90
2018-04-23T03:42:30.454Z,64.87
2018-04-23T03:43:31.128Z,64.87
2018-04-23T03:44:31.454Z,65.00
2018-04-23T03:45:31.925Z,65.06
2018-04-23T03:46:32.551Z,65.08
2018-04-23T03:47:32.821Z,65.00
2018-04-23T03:48:33.296Z,64.94
2018-04-23T03:49:33.769Z,64.86
2018-04-23T03:50:34.270Z,64.86
2018-04-23T03:51:34.717Z,65.02
2018-04-23T03:52:35.192Z,64.99
2018-04-23T03:53:35.867Z,65.04
2018-04-23T03:54:36.142Z,64.96
2018-04-23T03:55:36.613Z,65.12
2018-04-23T03:56:37.086Z,65.10
2018-04-23T03:57:37.768Z,65.09
2018-04-23T03:58:38.644Z,65.20
2018-04-23T03:59:38.512Z,65.26
2018-04-23T04:00:38.986Z,65.20
2018-04-23T04:01:39.461Z,65.28
2018-04-23T04:02:39.940Z,65.20
2018-04-23T04:03:40.612Z,65.20
2018-04-23T04:04:40.885Z,65.31
2018-04-23T04:05:41.411Z,65.36
2018-04-23T04:06:41.835Z,65.39
2018-04-23T04:07:42.511Z,65.39
2018-04-23T04:08:42.784Z,65.27
2018-04-23T04:09:43.257Z,65.30
2018-04-23T04:10:43.732Z,65.33
2018-04-23T04:11:44.205Z,65.41
2018-04-23T04:12:44.681Z,65.41
2018-04-23T04:13:45.153Z,65.49
2018-04-23T04:14:45.627Z,65.43
2018-04-23T04:15:46.202Z,65.57
2018-04-23T04:16:46.574Z,65.54
2018-04-23T04:17:47.045Z,65.54
2018-04-23T04:18:47.724Z,65.54
2018-04-23T04:19:47.989Z,65.56
2018-04-23T04:20:48.867Z,65.59
2018-04-23T04:21:48.936Z,65.62
2018-04-23T04:22:49.409Z,65.64
2018-04-23T04:24:50.350Z,65.61
2018-04-23T04:26:51.291Z,65.70
2018-04-23T04:27:51.964Z,65.72
2018-04-23T04:29:52.704Z,65.88
2018-04-23T04:30:53.176Z,65.99
2018-04-23T04:31:53.647Z,65.99
2018-04-23T04:32:54.116Z,65.99
2018-04-23T04:33:54.587Z,65.85
2018-04-23T04:34:55.059Z,65.96
2018-04-23T04:35:55.686Z,65.96
2018-04-23T04:36:56.000Z,65.96
2018-04-23T04:37:56.473Z,66.01
2018-04-23T04:38:57.146Z,66.06
2018-04-23T04:39:57.413Z,66.17
2018-04-23T04:40:57.885Z,66.34
2018-04-23T04:41:58.558Z,66.25
2018-04-23T04:42:59.037Z,66.31
2018-04-23T04:43:59.328Z,66.33
2018-04-23T04:44:59.772Z,66.09
2018-04-23T04:46:00.445Z,66.22
2018-04-23T04:47:00.719Z,66.28
2018-04-23T04:48:01.390Z,66.33
2018-04-23T04:49:01.657Z,66.44
2018-04-23T04:50:02.130Z,66.38
2018-04-23T04:51:02.602Z,66.36
2018-04-23T04:52:04.676Z,66.43
2018-04-23T04:53:03.891Z,66.46
2018-04-23T04:54:04.021Z,66.49
2018-04-23T04:55:04.899Z,66.51
2018-04-23T04:57:06.635Z,66.49
2018-04-23T04:58:06.113Z,66.43
2018-04-23T05:00:06.857Z,66.46
2018-04-23T05:01:07.388Z,66.43
2018-04-23T05:02:07.804Z,66.54
2018-04-23T05:03:08.279Z,66.56
2018-04-23T05:04:08.751Z,66.64
2018-04-23T05:05:09.428Z,66.72
2018-04-23T05:06:09.705Z,66.75
2018-04-23T05:07:10.172Z,66.67
2018-04-23T05:08:10.647Z,66.81
2018-04-23T05:09:11.123Z,66.89
2018-04-23T05:10:12.003Z,66.99
2018-04-23T05:12:12.545Z,67.02
2018-04-23T05:13:13.229Z,67.04
2018-04-23T05:15:14.176Z,67.24
2018-04-23T05:16:14.645Z,67.26
2018-04-23T05:17:14.919Z,67.24
2018-04-23T05:18:15.596Z,67.21
2018-04-23T05:19:16.071Z,67.24
2018-04-23T05:20:16.346Z,67.19
2018-04-23T05:21:16.818Z,67.19
2018-04-23T05:23:17.969Z,67.16
2018-04-23T05:24:18.250Z,67.16
2018-04-23T05:25:18.718Z,67.21
2018-04-23T05:26:19.244Z,67.13
2018-04-23T05:27:19.667Z,67.13
2018-04-23T05:28:20.137Z,67.10
2018-04-23T05:30:21.088Z,67.11
2018-04-23T05:31:21.560Z,67.13
2018-04-23T05:32:22.232Z,67.10
2018-04-23T05:33:22.907Z,67.08
2018-04-23T05:34:23.180Z,67.05
2018-04-23T05:36:24.075Z,66.99
2018-04-23T05:37:24.393Z,67.05
2018-04-23T05:38:24.864Z,67.05
2018-04-23T05:39:25.337Z,67.02
2018-04-23T05:40:26.209Z,67.13
2018-04-23T05:41:26.330Z,67.15
2018-04-23T05:42:26.955Z,67.16
2018-04-23T05:43:27.223Z,67.15
2018-04-23T05:44:27.694Z,67.10
2018-04-23T05:45:28.165Z,67.15
2018-04-23T05:46:29.177Z,67.18
2018-04-23T05:47:29.106Z,67.18
2018-04-23T05:48:29.576Z,67.20
2018-04-23T05:49:30.052Z,67.20
2018-04-23T05:50:30.518Z,67.23
2018-04-23T05:51:30.994Z,67.23
2018-04-23T05:52:31.458Z,67.12
2018-04-23T05:54:32.405Z,67.26
2018-04-23T05:55:33.076Z,67.28
2018-04-23T05:56:33.345Z,67.28
2018-04-23T05:57:33.863Z,67.34
2018-04-23T05:58:34.288Z,67.34
2018-04-23T05:59:34.766Z,67.32
2018-04-23T06:00:35.435Z,67.35
2018-04-23T06:01:35.903Z,67.30
2018-04-23T06:02:36.377Z,67.35
2018-04-23T06:03:36.645Z,67.36
2018-04-23T06:04:37.119Z,67.36
2018-04-23T06:05:37.592Z,67.34
2018-04-23T06:06:38.063Z,67.34
2018-04-23T06:07:38.537Z,67.32
2018-04-23T06:08:39.010Z,67.27
2018-04-23T06:09:39.484Z,67.22
2018-04-23T06:10:39.954Z,67.20
2018-04-23T06:11:40.634Z,67.12
2018-04-23T06:12:41.305Z,67.07
2018-04-23T06:13:41.579Z,66.93
2018-04-23T06:14:42.052Z,66.91
2018-04-23T06:15:42.323Z,66.86
2018-04-23T06:16:43.203Z,66.89
2018-04-23T06:17:43.270Z,66.90
2018-04-23T06:19:44.267Z,66.85
2018-04-23T06:20:44.976Z,66.80
2018-04-23T06:21:45.168Z,66.64
2018-04-23T06:22:45.643Z,66.53
2018-04-23T06:23:46.115Z,66.48
2018-04-23T06:24:46.996Z,66.43
2018-04-23T06:25:47.472Z,66.35
2018-04-23T06:26:47.591Z,66.32
2018-04-23T06:28:49.097Z,66.19
2018-04-23T06:29:48.966Z,66.17
2018-04-23T06:30:49.644Z,66.14
2018-04-23T06:31:50.119Z,66.12
2018-04-23T06:32:50.391Z,66.10
2018-04-23T06:33:50.866Z,66.01
2018-04-23T06:34:51.341Z,65.96
2018-04-23T06:35:51.813Z,65.94
2018-04-23T06:36:52.289Z,65.89
2018-04-23T06:37:52.966Z,65.83
2018-04-23T06:38:53.236Z,65.84
2018-04-23T06:39:53.711Z,65.87
2018-04-23T06:40:54.189Z,65.76
2018-04-23T06:41:54.899Z,65.77
2018-04-23T06:42:55.335Z,65.77
2018-04-23T06:43:55.605Z,65.72
2018-04-23T06:44:56.080Z,65.72
2018-04-23T06:45:56.556Z,65.68
2018-04-23T06:46:57.076Z,65.63
2018-04-23T06:48:57.969Z,65.53
2018-04-23T06:49:58.646Z,65.48
2018-04-23T06:50:58.916Z,65.46
2018-04-23T06:51:59.386Z,65.46
2018-04-23T06:52:59.857Z,65.39
2018-04-23T06:54:00.330Z,65.29
2018-04-23T06:55:00.803Z,65.19
2018-04-23T06:57:01.745Z,65.09
2018-04-23T06:58:02.217Z,65.10
2018-04-23T06:59:02.773Z,65.05
2018-04-23T07:01:03.631Z,64.96
2018-04-23T07:02:04.307Z,64.88
2018-04-23T07:03:04.778Z,64.84
2018-04-23T07:04:05.048Z,64.85
2018-04-23T07:05:05.762Z,64.80
2018-04-23T07:09:07.409Z,64.54
2018-04-23T07:10:07.880Z,64.52
2018-04-23T07:11:08.560Z,64.42
2018-04-23T07:12:08.825Z,64.27
2018-04-23T07:13:09.297Z,64.17
2018-04-23T07:15:10.242Z,63.93
2018-04-23T07:16:10.718Z,63.84
2018-04-23T07:17:11.189Z,63.76
2018-04-23T07:18:11.664Z,63.63
2018-04-23T07:19:12.140Z,63.53
2018-04-23T07:20:12.628Z,63.35
2018-04-23T07:21:13.085Z,63.22
2018-04-23T07:22:13.559Z,63.12
2018-04-23T07:23:14.235Z,62.88
2018-04-23T07:24:14.512Z,62.80
2018-04-23T07:25:14.982Z,62.70
2018-04-23T07:26:15.660Z,62.51
2018-04-23T07:28:16.608Z,62.22
2018-04-23T07:30:18.166Z,61.98
2018-04-23T07:31:18.238Z,61.87
2018-04-23T07:32:18.309Z,61.68
2018-04-23T07:33:18.786Z,61.63
2018-04-23T07:34:19.261Z,61.56
2018-04-23T07:35:19.941Z,61.56
2018-04-23T07:36:20.617Z,61.57
2018-04-23T07:37:20.691Z,61.55
2018-04-23T07:38:21.163Z,61.50
2018-04-23T07:40:22.115Z,61.55
2018-04-23T07:42:23.068Z,61.51
2018-04-23T07:43:23.544Z,61.49
2018-04-23T07:44:24.019Z,61.44
2018-04-23T07:45:24.495Z,61.39
2018-04-23T07:46:25.373Z,61.40
2018-04-23T07:47:25.442Z,61.35
2018-04-23T07:48:25.921Z,61.36
2018-04-23T07:50:27.272Z,61.34
2018-04-23T07:51:27.340Z,61.32
2018-04-23T07:52:28.172Z,61.27
2018-04-23T07:53:28.287Z,61.28
2018-04-23T07:56:29.911Z,61.22
2018-04-23T07:57:30.183Z,61.20
2018-04-23T07:58:30.655Z,61.18
2018-04-23T08:00:31.602Z,61.05
2018-04-23T08:01:32.072Z,60.98
2018-04-23T08:02:32.698Z,60.90
2018-04-23T08:04:33.691Z,60.71
2018-04-23T08:05:33.961Z,60.64
2018-04-23T08:06:34.885Z,60.59
2018-04-23T08:07:36.102Z,60.54
2018-04-23T08:08:35.379Z,60.52
2018-04-23T08:09:35.856Z,60.44
2018-04-23T08:10:36.528Z,60.40
2018-04-23T08:11:36.998Z,60.29
2018-04-23T08:12:37.671Z,60.22
2018-04-23T08:13:37.737Z,60.08
2018-04-23T08:14:38.210Z,59.98
2018-04-23T08:15:38.683Z,59.87
2018-04-23T08:16:39.362Z,59.77
2018-04-23T08:17:39.627Z,59.64
2018-04-23T08:18:40.107Z,59.50
2018-04-23T08:19:40.602Z,59.37
2018-04-23T08:20:41.047Z,59.21
2018-04-23T08:21:41.718Z,59.07
2018-04-23T08:22:41.991Z,58.91
2018-04-23T08:23:42.463Z,58.78
2018-04-23T08:24:42.937Z,58.59
2018-04-23T08:26:43.883Z,58.20
2018-04-23T08:27:44.361Z,58.04
2018-04-23T08:28:44.835Z,57.82
2018-04-23T08:29:45.306Z,57.63
2018-04-23T08:30:45.781Z,57.37
2018-04-23T08:31:46.285Z,57.24
2018-04-23T08:32:46.729Z,57.02
2018-04-23T08:33:47.205Z,56.82
2018-04-23T08:34:47.685Z,56.57
2018-04-23T08:35:48.157Z,56.32
2018-04-23T08:36:48.630Z,56.09
2018-04-23T08:37:49.158Z,55.87
2018-04-23T08:38:49.583Z,55.67
2018-04-23T08:39:50.060Z,55.45
2018-04-23T08:40:50.536Z,55.19
2018-04-23T08:42:51.489Z,54.77
2018-04-23T08:43:52.011Z,54.48
2018-04-23T08:44:52.442Z,54.31
2018-04-23T08:45:52.919Z,53.99
2018-04-23T08:46:53.599Z,53.82
2018-04-23T08:47:53.877Z,53.60
2018-04-23T08:49:55.027Z,53.08
2018-04-23T08:50:55.300Z,52.88
2018-04-23T08:51:56.180Z,52.65
2018-04-23T08:52:56.252Z,52.39
2018-04-23T08:53:56.728Z,52.16
2018-04-23T08:54:57.421Z,51.89
2018-04-23T08:55:58.022Z,51.75
2018-04-23T08:56:58.161Z,51.52
2018-04-23T08:57:58.992Z,51.25
2018-04-23T08:58:59.112Z,50.99
2018-04-23T09:01:00.058Z,50.64
2018-04-23T09:02:00.532Z,50.41
2018-04-23T09:04:01.486Z,49.99
2018-04-23T09:06:02.432Z,49.64
2018-04-23T09:07:03.108Z,49.50
2018-04-23T09:08:03.381Z,49.22
2018-04-23T09:09:04.057Z,49.17
2018-04-23T09:10:04.732Z,48.96
2018-04-23T09:11:06.217Z,48.78
2018-04-23T09:12:05.276Z,48.64
2018-04-23T09:13:05.952Z,48.52
2018-04-23T09:14:06.225Z,48.31
2018-04-23T09:15:06.698Z,48.10
2018-04-23T09:16:07.171Z,48.05
2018-04-23T09:17:07.645Z,47.87
2018-04-23T09:18:08.117Z,47.71
2018-04-23T09:19:08.590Z,47.56
2018-04-23T09:21:09.739Z,47.44
2018-04-23T09:22:10.211Z,47.32
2018-04-23T09:23:10.685Z,47.33
2018-04-23T09:25:11.428Z,47.27
2018-04-23T09:26:11.900Z,47.14
2018-04-23T09:28:13.046Z,47.08
2018-04-23T09:29:13.319Z,47.27
2018-04-23T09:30:13.789Z,47.27
2018-04-23T09:31:14.266Z,47.27
2018-04-23T09:32:14.736Z,47.33
2018-04-23T09:33:15.259Z,47.43
2018-04-23T09:34:15.882Z,47.53
2018-04-23T09:35:16.357Z,47.53
2018-04-23T09:36:16.625Z,47.59
2018-04-23T09:37:17.101Z,47.63
2018-04-23T09:38:19.129Z,47.60
2018-04-23T09:39:18.048Z,47.61
2018-04-23T09:40:18.530Z,47.55
2018-04-23T09:41:19.408Z,47.52
2018-04-23T09:42:19.468Z,47.40
2018-04-23T09:43:19.945Z,47.25
2018-04-23T09:44:20.623Z,47.20
2018-04-23T09:45:20.897Z,47.01
2018-04-23T09:46:21.370Z,46.86
2018-04-23T09:47:21.848Z,46.25
2018-04-23T09:48:22.323Z,46.32
2018-04-23T09:49:22.799Z,46.64
2018-04-23T09:50:23.275Z,46.65
2018-04-23T09:51:23.752Z,46.52
2018-04-23T09:52:24.233Z,46.56
2018-04-23T09:53:24.857Z,46.56
2018-04-23T09:54:25.181Z,46.50
2018-04-23T09:55:25.861Z,46.41
2018-04-23T09:56:26.135Z,46.32
2018-04-23T09:57:26.612Z,46.35
2018-04-23T09:58:27.141Z,46.16
2018-04-23T09:59:27.566Z,46.20
2018-04-23T10:01:28.926Z,46.10
2018-04-23T10:02:28.999Z,46.23
2018-04-23T10:03:29.526Z,46.14
2018-04-23T10:04:30.154Z,45.82
2018-04-23T10:05:30.433Z,46.17
2018-04-23T10:06:30.904Z,46.23
2018-04-23T10:07:31.381Z,46.23
2018-04-23T10:09:32.544Z,46.30
2018-04-23T10:10:32.811Z,46.36
2018-04-23T10:11:33.301Z,46.30
2018-04-23T10:12:33.765Z,46.17
2018-04-23T10:13:34.442Z,46.30
2018-04-23T10:14:34.729Z,45.87
2018-04-23T10:16:35.666Z,45.77
2018-04-23T10:17:36.147Z,46.15
2018-04-23T10:18:36.671Z,45.88
2018-04-23T10:19:37.095Z,46.17
2018-04-23T10:20:37.569Z,46.58
2018-04-23T10:21:38.047Z,46.80
2018-04-23T10:22:38.518Z,46.76
2018-04-23T10:23:38.994Z,46.92
2018-04-23T10:24:39.674Z,47.14
2018-04-23T10:25:39.945Z,46.65
2018-04-23T10:26:40.446Z,46.68
2018-04-23T10:27:40.894Z,47.41
2018-04-23T10:28:41.709Z,47.44
2018-04-23T10:29:41.843Z,47.50
2018-04-23T10:30:42.316Z,47.74
2018-04-23T10:31:42.792Z,47.84
2018-04-23T10:33:43.791Z,47.86
2018-04-23T10:34:44.214Z,48.05
2018-04-23T10:35:44.688Z,48.68
2018-04-23T10:36:45.362Z,48.55
2018-04-23T10:37:45.636Z,48.73
2018-04-23T10:38:46.109Z,49.01
2018-04-23T10:39:46.784Z,48.98
2018-04-23T10:40:47.056Z,49.16
2018-04-23T10:41:47.543Z,49.48
2018-04-23T10:42:48.004Z,49.03
2018-04-23T10:43:48.730Z,49.19
2018-04-23T10:44:49.150Z,49.47
2018-04-23T10:45:49.426Z,49.52
2018-04-23T10:46:49.898Z,49.02
2018-04-23T10:47:50.368Z,49.58
2018-04-23T10:48:50.892Z,49.77
2018-04-23T10:49:51.315Z,49.48
2018-04-23T10:50:51.786Z,49.67
2018-04-23T10:52:52.732Z,50.07
2018-04-23T10:53:53.254Z,50.26
2018-04-23T10:55:54.153Z,49.37
2018-04-23T10:56:54.625Z,49.27
2018-04-23T10:57:55.094Z,49.27
2018-04-23T10:58:55.617Z,49.55
2018-04-23T10:59:56.041Z,49.79
2018-04-23T11:00:56.514Z,49.95
2018-04-23T11:01:57.241Z,50.20
2018-04-23T11:02:57.457Z,49.82
2018-04-23T11:03:57.985Z,50.29
2018-04-23T11:04:58.405Z,50.03
2018-04-23T11:05:58.880Z,49.91
2018-04-23T11:06:59.353Z,49.40
2018-04-23T11:07:59.832Z,49.09
2018-04-23T11:09:00.301Z,49.87
2018-04-23T11:10:00.775Z,50.15
2018-04-23T11:11:01.250Z,50.65
2018-04-23T11:12:01.726Z,50.49
2018-04-23T11:13:02.203Z,50.40
2018-04-23T11:14:02.879Z,50.49
2018-04-23T11:15:03.153Z,50.65
2018-04-23T11:16:03.628Z,50.65
2018-04-23T11:17:04.105Z,50.80
2018-04-23T11:19:05.058Z,51.21
2018-04-23T11:20:05.533Z,50.34
2018-04-23T11:21:06.012Z,49.96
2018-04-23T11:22:06.894Z,50.58
2018-04-23T11:23:06.966Z,50.84
2018-04-23T11:24:07.493Z,50.30
2018-04-23T11:25:07.953Z,49.93
2018-04-23T11:26:08.598Z,50.34
2018-04-23T11:27:08.872Z,49.52
2018-04-23T11:28:09.351Z,49.58
2018-04-23T11:29:10.044Z,49.46
2018-04-23T11:30:10.305Z,49.40
2018-04-23T11:31:10.781Z,50.37
2018-04-23T11:32:11.464Z,50.53
2018-04-23T11:33:11.735Z,49.78
2018-04-23T11:34:12.415Z,49.40
2018-04-23T11:35:12.692Z,49.56
2018-04-23T11:36:13.165Z,49.37
2018-04-23T11:37:13.644Z,49.09
2018-04-23T11:38:14.118Z,48.96
2018-04-23T11:39:14.646Z,48.14
2018-04-23T11:40:15.273Z,48.49
2018-04-23T11:41:15.750Z,47.22
2018-04-23T11:42:16.029Z,48.36
2018-04-23T11:43:16.498Z,47.70
2018-04-23T11:44:16.974Z,48.71
2018-04-23T11:45:17.450Z,49.22
2018-04-23T11:46:17.928Z,49.19
2018-04-23T11:47:18.408Z,49.22
2018-04-23T11:48:18.880Z,49.57
2018-04-23T11:49:19.354Z,49.38
2018-04-23T11:50:19.830Z,49.00
2018-04-23T11:51:20.706Z,48.72
2018-04-23T11:52:20.778Z,48.90
2018-04-23T11:53:21.256Z,49.35
2018-04-23T11:54:21.779Z,49.66
2018-04-23T11:55:22.205Z,49.60
2018-04-23T11:56:22.881Z,49.57
2018-04-23T11:57:23.152Z,49.72
2018-04-23T11:58:23.624Z,49.85
2018-04-23T11:59:24.305Z,49.94
2018-04-23T12:00:24.574Z,50.07
2018-04-23T12:01:25.049Z,50.26
2018-04-23T12:02:25.534Z,50.26
2018-04-23T12:04:26.558Z,50.26
2018-04-23T12:06:27.419Z,50.29
2018-04-23T12:07:27.890Z,49.85
2018-04-23T12:08:28.767Z,49.54
2018-04-23T12:09:29.038Z,49.54
2018-04-23T12:10:29.315Z,49.13
2018-04-23T12:11:29.985Z,49.85
2018-04-23T12:12:30.460Z,49.25
2018-04-23T12:13:30.939Z,49.60
2018-04-23T12:15:31.674Z,49.47
2018-04-23T12:16:32.351Z,49.16
2018-04-23T12:17:32.621Z,49.22
2018-04-23T12:18:33.299Z,49.26
2018-04-23T12:19:33.617Z,49.79
2018-04-23T12:20:34.039Z,49.79
2018-04-23T12:21:34.519Z,49.82
2018-04-23T12:23:35.459Z,49.98
2018-04-23T12:24:35.982Z,50.17
2018-04-23T12:26:36.873Z,50.48
2018-04-23T12:27:37.549Z,50.48
2018-04-23T12:28:37.819Z,50.73
2018-04-23T12:29:38.699Z,50.39
2018-04-23T12:31:39.237Z,50.67
2018-04-23T12:32:40.907Z,50.80
2018-04-23T12:33:40.188Z,50.70
2018-04-23T12:34:40.909Z,50.83
2018-04-23T12:35:41.129Z,50.80
2018-04-23T12:36:41.811Z,50.70
2018-04-23T12:37:42.290Z,50.39
2018-04-23T12:38:42.554Z,50.64
2018-04-23T12:39:43.184Z,50.67
2018-04-23T12:40:43.502Z,50.86
2018-04-23T12:41:44.382Z,50.86
2018-04-23T12:42:44.452Z,51.02
2018-04-23T12:43:45.129Z,50.99
2018-04-23T12:46:46.355Z,50.99
2018-04-23T12:47:46.832Z,50.87
2018-04-23T12:48:47.380Z,50.84
2018-04-23T12:49:48.392Z,50.59
2018-04-23T12:50:48.466Z,50.40
2018-04-23T12:51:48.944Z,50.96
2018-04-23T12:52:49.217Z,50.97
2018-04-23T12:53:49.693Z,50.75
2018-04-23T12:54:50.425Z,50.34
2018-04-23T12:55:50.923Z,50.44
2018-04-23T12:56:51.329Z,50.53
2018-04-23T12:57:51.803Z,50.38
2018-04-23T12:58:52.081Z,50.32
2018-04-23T12:59:52.552Z,50.38
2018-04-23T13:01:53.715Z,50.57
2018-04-23T13:02:53.988Z,50.82
2018-04-23T13:03:54.667Z,50.35
2018-04-23T13:05:55.425Z,50.39
2018-04-23T13:07:56.367Z,50.39
2018-04-23T13:09:57.327Z,50.36
2018-04-23T13:10:58.202Z,50.45
2018-04-23T13:12:58.748Z,50.42
2018-04-23T13:13:59.426Z,50.79
2018-04-23T13:14:59.700Z,50.51
2018-04-23T13:17:00.652Z,50.20
2018-04-23T13:18:01.127Z,50.23
2018-04-23T13:19:01.811Z,49.57
2018-04-23T13:20:02.077Z,49.83
2018-04-23T13:22:03.028Z,49.14
2018-04-23T13:23:03.712Z,48.69
2018-04-23T13:24:04.181Z,48.60
2018-04-23T13:25:05.060Z,48.06
2018-04-23T13:26:05.136Z,47.49
2018-04-23T13:27:05.407Z,47.52
2018-04-23T13:28:06.349Z,47.90
2018-04-23T13:30:07.032Z,48.06
2018-04-23T13:31:07.302Z,48.25
2018-04-23T13:32:07.778Z,48.50
2018-04-23T13:33:08.456Z,48.50
2018-04-23T13:35:09.197Z,47.96
2018-04-23T13:36:09.670Z,47.67
2018-04-23T13:37:10.410Z,47.71
2018-04-23T13:38:10.618Z,47.58
2018-04-23T13:39:11.495Z,48.05
2018-04-23T13:41:12.238Z,48.12
2018-04-23T13:42:12.514Z,48.69
2018-04-23T13:43:13.186Z,48.88
2018-04-23T13:45:15.409Z,47.67
2018-04-23T13:47:14.880Z,47.16
2018-04-23T13:48:15.751Z,47.10
2018-04-23T13:49:16.230Z,46.33
2018-04-23T13:52:22.471Z,46.01
2018-04-23T13:53:17.914Z,46.07
2018-04-23T13:54:18.390Z,46.20
2018-04-23T13:56:19.332Z,46.33
2018-04-23T13:58:20.081Z,46.20
2018-04-23T13:59:20.548Z,46.74
2018-04-23T14:01:21.496Z,46.80
2018-04-23T14:02:21.964Z,46.77
2018-04-23T14:03:22.462Z,46.80
2018-04-23T14:04:23.115Z,46.67
2018-04-23T14:05:23.591Z,46.45
2018-04-23T14:06:24.057Z,46.13
2018-04-23T14:07:24.535Z,45.65
2018-04-23T14:09:25.292Z,45.55
2018-04-23T14:10:25.748Z,46.00
2018-04-23T14:11:27.622Z,45.68
2018-04-23T14:12:26.696Z,46.25
2018-04-23T14:13:27.172Z,46.45
2018-04-23T14:14:27.851Z,46.67
2018-04-23T14:15:28.173Z,46.83
2018-04-23T14:17:29.275Z,46.99
2018-04-23T14:18:29.547Z,46.99
2018-04-23T14:19:30.252Z,46.67
2018-04-23T14:21:30.974Z,47.24
2018-04-23T14:22:31.653Z,47.50
2018-04-23T14:24:33.815Z,47.34
2018-04-23T14:26:33.560Z,46.95
2018-04-23T14:27:33.831Z,46.98
2018-04-23T14:30:35.260Z,46.63
2018-04-23T14:31:36.154Z,46.38
2018-04-23T14:32:36.215Z,46.41
2018-04-23T14:34:37.777Z,46.85
2018-04-23T14:35:38.110Z,47.24
2018-04-23T14:36:38.122Z,47.33
2018-04-23T14:37:38.608Z,47.46
2018-04-23T14:38:39.279Z,47.45